Time;durP1;ratioP1;P1;durP2;ratioP2;P2;SDS_P1;SDS_P2;PMS_P1;PMS_P2;Temp;Humidity;BMP_temperature;BMP_pressure;BME280_temperature;BME280_humidity;BME280_pressure;Samples;Min_cycle;Max_cycle;Signal;HPM_P1;HPM_P2
2022/12/18 00:01:39;;;;;;;67.20;22.70;;;-3.50;99.90;;;;;;5081687;28;20040;-83
2022/12/18 00:04:07;;;;;;;60.08;23.58;;;-3.50;99.90;;;;;;5077087;28;20036;-83
2022/12/18 00:06:34;;;;;;;57.72;22.33;;;-3.50;99.90;;;;;;5080450;28;20055;-83
2022/12/18 00:09:01;;;;;;;64.97;25.85;;;-3.50;99.90;;;;;;5077271;28;20573;-83
2022/12/18 00:11:29;;;;;;;68.50;24.52;;;-3.50;99.90;;;;;;5072129;28;20067;-83
2022/12/18 00:13:57;;;;;;;73.82;25.27;;;-3.50;99.90;;;;;;5099937;28;20057;-83
2022/12/18 00:16:24;;;;;;;122.15;53.17;;;-3.50;99.90;;;;;;5080003;28;20039;-83
2022/12/18 00:18:53;;;;;;;79.45;27.48;;;-3.50;99.90;;;;;;5070605;28;20028;-83
2022/12/18 00:21:19;;;;;;;65.60;25.52;;;-3.50;99.90;;;;;;5079121;28;20059;-83
2022/12/18 00:23:47;;;;;;;72.68;27.27;;;-3.60;99.90;;;;;;5070695;28;20073;-83
2022/12/18 00:26:15;;;;;;;67.10;25.85;;;-3.50;99.90;;;;;;5066944;28;20042;-83
2022/12/18 00:28:42;;;;;;;71.35;25.58;;;-3.50;99.90;;;;;;5078573;28;20036;-83
2022/12/18 00:31:10;;;;;;;68.50;25.63;;;-3.50;99.90;;;;;;5071751;28;20047;-83
2022/12/18 00:33:37;;;;;;;67.68;26.08;;;-3.60;99.90;;;;;;5089991;28;20036;-83
2022/12/18 00:36:09;;;;;;;66.32;27.13;;;-3.50;99.90;;;;;;5082353;28;20039;-83
2022/12/18 00:38:35;;;;;;;75.15;28.35;;;-3.60;99.90;;;;;;5089338;28;20481;-83
2022/12/18 00:41:11;;;;;;;123.53;55.35;;;-3.60;99.90;;;;;;5091869;28;20428;-83
2022/12/18 00:43:38;;;;;;;76.43;28.40;;;-3.60;99.90;;;;;;5096927;28;20053;-83
2022/12/18 00:46:04;;;;;;;69.05;27.35;;;-3.60;99.90;;;;;;5073436;28;20477;-83
2022/12/18 00:48:30;;;;;;;77.47;28.73;;;-3.70;99.90;;;;;;5081295;28;20040;-83
2022/12/18 00:50:56;;;;;;;68.10;27.25;;;-3.70;99.90;;;;;;5070087;28;20089;-82
2022/12/18 00:53:24;;;;;;;70.93;28.75;;;-3.70;99.90;;;;;;5074133;28;20051;-82
2022/12/18 00:55:50;;;;;;;77.45;27.67;;;-3.70;99.90;;;;;;5080662;28;20066;-83
2022/12/18 00:58:17;;;;;;;75.07;28.08;;;-3.80;99.90;;;;;;5081113;28;20043;-83
2022/12/18 01:00:43;;;;;;;76.40;27.90;;;-3.80;99.90;;;;;;5071749;28;20036;-83
2022/12/18 01:03:12;;;;;;;77.65;28.63;;;-3.80;99.90;;;;;;5071342;28;20080;-83
2022/12/18 01:05:40;;;;;;;78.65;30.00;;;-3.80;99.90;;;;;;5068574;28;20114;-83
2022/12/18 01:08:05;;;;;;;79.40;28.65;;;-3.90;99.90;;;;;;5098180;28;20385;-83
2022/12/18 01:10:31;;;;;;;75.57;28.00;;;-3.90;99.90;;;;;;5073895;28;20051;-83
2022/12/18 01:12:57;;;;;;;72.43;27.83;;;-3.90;99.90;;;;;;5072941;28;20107;-82
2022/12/18 01:15:22;;;;;;;73.35;27.58;;;-4.00;99.90;;;;;;5067373;28;20032;-82
2022/12/18 01:17:48;;;;;;;68.38;27.13;;;-4.00;99.90;;;;;;5062200;28;20040;-83
2022/12/18 01:20:14;;;;;;;66.72;29.13;;;-4.00;99.90;;;;;;5075958;28;20039;-83
2022/12/18 01:22:39;;;;;;;70.15;28.08;;;-4.10;99.90;;;;;;5070049;28;20035;-83
2022/12/18 01:25:05;;;;;;;71.65;27.20;;;-4.10;99.90;;;;;;5085678;28;20040;-83
2022/12/18 01:27:33;;;;;;;75.88;27.50;;;-4.10;99.90;;;;;;5062157;28;20122;-83
2022/12/18 01:29:58;;;;;;;80.07;28.67;;;-4.20;99.90;;;;;;5074003;28;20031;-83
2022/12/18 01:32:24;;;;;;;80.72;29.33;;;-4.20;99.90;;;;;;5069786;28;20093;-83
2022/12/18 01:34:49;;;;;;;74.22;27.10;;;-4.20;99.90;;;;;;5076040;28;20038;-83
2022/12/18 01:37:15;;;;;;;62.83;26.85;;;-4.30;99.90;;;;;;5097742;28;20036;-83
2022/12/18 01:39:41;;;;;;;63.83;25.13;;;-4.40;99.90;;;;;;5071803;28;20522;-82
2022/12/18 01:42:13;;;;;;;60.60;25.63;;;-4.40;99.90;;;;;;5089706;28;20049;-82
2022/12/18 01:44:56;;;;;;;61.55;26.30;;;-4.50;99.90;;;;;;5074190;28;20088;-83
2022/12/18 01:47:33;;;;;;;65.60;25.55;;;-4.60;99.90;;;;;;5081336;28;20079;-84
2022/12/18 01:50:06;;;;;;;63.85;24.45;;;-4.60;99.90;;;;;;5091708;28;20032;-83
2022/12/18 01:52:33;;;;;;;50.67;22.85;;;-4.70;99.90;;;;;;5067461;28;20426;-82
2022/12/18 01:55:00;;;;;;;52.90;23.55;;;-4.70;99.90;;;;;;5081850;28;20039;-83
2022/12/18 01:57:26;;;;;;;52.60;22.00;;;-4.80;99.90;;;;;;5082656;28;20085;-83
2022/12/18 01:59:56;;;;;;;56.75;24.70;;;-4.80;99.90;;;;;;5076466;28;20075;-83
2022/12/18 02:02:22;;;;;;;58.75;24.25;;;-4.80;99.90;;;;;;5091758;28;20055;-83
2022/12/18 02:04:48;;;;;;;56.33;22.77;;;-4.90;99.90;;;;;;5079134;28;20063;-83
2022/12/18 02:07:37;;;;;;;55.13;22.98;;;-5.00;99.90;;;;;;5089149;28;20043;-82
2022/12/18 02:10:28;;;;;;;62.40;25.15;;;-5.00;99.90;;;;;;5065702;28;20441;-83
2022/12/18 02:13:20;;;;;;;54.55;21.90;;;-5.00;99.90;;;;;;5098932;28;20042;-82
2022/12/18 02:16:08;;;;;;;63.88;23.58;;;-5.10;99.90;;;;;;5073229;28;20036;-83
2022/12/18 02:18:38;;;;;;;55.85;21.52;;;-5.20;99.90;;;;;;5081497;28;20046;-82
2022/12/18 02:21:15;;;;;;;64.05;24.67;;;-5.20;99.90;;;;;;5066560;28;20050;-83
2022/12/18 02:23:56;;;;;;;65.75;24.17;;;-5.20;99.90;;;;;;5083000;28;20114;-83
2022/12/18 02:26:36;;;;;;;52.75;22.30;;;-5.20;99.90;;;;;;5081973;28;20420;-83
2022/12/18 02:29:16;;;;;;;59.92;23.88;;;-5.20;99.90;;;;;;5064513;28;20093;-82
2022/12/18 02:31:51;;;;;;;58.10;22.88;;;-5.30;99.90;;;;;;5095423;28;20078;-83
2022/12/18 02:34:18;;;;;;;58.13;23.08;;;-5.30;99.90;;;;;;5068515;28;20089;-82
2022/12/18 02:36:45;;;;;;;57.00;23.45;;;-5.30;99.90;;;;;;5067228;28;20063;-82
2022/12/18 02:39:13;;;;;;;62.13;26.08;;;-5.40;99.90;;;;;;5067056;28;20123;-83
2022/12/18 02:41:40;;;;;;;56.38;24.25;;;-5.40;99.90;;;;;;5075312;22;20397;-75
2022/12/18 02:44:11;;;;;;;60.60;24.17;;;-5.40;99.90;;;;;;5026299;28;20038;-75
2022/12/18 02:46:39;;;;;;;59.67;21.73;;;-5.40;99.90;;;;;;5030142;28;20095;-75
2022/12/18 02:49:36;;;;;;;59.50;24.35;;;-5.50;99.90;;;;;;5032228;28;20041;-75
2022/12/18 02:52:51;;;;;;;60.15;23.10;;;-5.50;99.90;;;;;;5019305;28;20048;-75
2022/12/18 02:55:44;;;;;;;50.92;22.35;;;-5.60;99.90;;;;;;5002697;28;20411;-75
2022/12/18 02:58:39;;;;;;;63.60;22.98;;;-5.60;99.90;;;;;;5027287;28;20045;-75
2022/12/18 03:01:28;;;;;;;58.13;22.65;;;-5.60;99.90;;;;;;4995927;28;20065;-76
2022/12/18 03:04:08;;;;;;;55.25;22.92;;;-5.60;99.90;;;;;;5016559;28;20495;-75
2022/12/18 03:06:43;;;;;;;57.75;24.77;;;-5.70;99.90;;;;;;5016585;28;20142;-75
2022/12/18 03:09:21;;;;;;;55.33;23.65;;;-5.60;99.90;;;;;;5016119;28;20045;-75
2022/12/18 03:14:43;;;;;;;55.97;22.63;;;-5.80;99.90;;;;;;5034487;28;20128;-75
2022/12/18 03:17:13;;;;;;;61.97;23.10;;;-5.80;99.90;;;;;;5015797;28;20519;-75
2022/12/18 03:19:40;;;;;;;71.07;24.98;;;-5.80;99.90;;;;;;5014374;28;20187;-76
2022/12/18 03:22:09;;;;;;;59.80;24.23;;;-5.80;99.90;;;;;;5019140;28;20463;-75
2022/12/18 03:24:38;;;;;;;63.97;25.80;;;-5.80;99.90;;;;;;5042288;28;20037;-75
2022/12/18 03:27:10;;;;;;;66.63;22.88;;;-5.80;99.90;;;;;;5015550;28;20095;-75
2022/12/18 03:29:47;;;;;;;65.63;23.13;;;-5.80;99.90;;;;;;5019686;28;20099;-75
2022/12/18 03:32:42;;;;;;;59.85;24.10;;;-5.90;99.90;;;;;;5046844;28;20165;-75
2022/12/18 03:35:11;;;;;;;65.15;24.58;;;-5.90;99.90;;;;;;5016065;28;20037;-75
2022/12/18 03:37:37;;;;;;;56.60;22.00;;;-6.00;99.90;;;;;;5016594;28;20041;-75
2022/12/18 03:40:04;;;;;;;63.92;22.95;;;-6.00;99.90;;;;;;5015421;28;20084;-75
2022/12/18 03:42:51;;;;;;;63.15;23.00;;;-6.00;99.90;;;;;;5008801;28;20045;-75
2022/12/18 03:45:36;;;;;;;65.22;23.83;;;-6.00;99.90;;;;;;5015472;28;20140;-75
2022/12/18 03:48:17;;;;;;;63.15;25.67;;;-6.00;99.90;;;;;;5016100;28;20043;-75
2022/12/18 03:50:54;;;;;;;60.83;22.05;;;-6.10;99.90;;;;;;5021451;28;20140;-75
2022/12/18 03:53:27;;;;;;;55.53;22.63;;;-6.10;99.90;;;;;;4999901;28;20045;-75
2022/12/18 03:55:55;;;;;;;64.75;23.17;;;-6.10;99.90;;;;;;5014982;28;20036;-75
2022/12/18 03:58:26;;;;;;;51.78;21.40;;;-6.10;99.90;;;;;;5015271;28;20072;-75
2022/12/18 04:00:56;;;;;;;57.00;21.17;;;-6.10;99.90;;;;;;5015874;28;20086;-75
2022/12/18 04:03:23;;;;;;;56.70;21.17;;;-6.20;99.90;;;;;;5013675;28;20040;-75
2022/12/18 04:05:52;;;;;;;66.32;23.73;;;-6.20;99.90;;;;;;5015217;28;20041;-75
2022/12/18 04:08:19;;;;;;;64.22;23.35;;;-6.30;99.90;;;;;;5015020;28;20041;-75
2022/12/18 04:10:45;;;;;;;56.25;22.52;;;-6.30;99.90;;;;;;5014996;28;20083;-75
2022/12/18 04:13:10;;;;;;;47.53;20.35;;;-6.20;99.90;;;;;;5000030;28;20073;-75
2022/12/18 04:15:37;;;;;;;51.22;21.85;;;-6.30;99.90;;;;;;5014968;28;20383;-75
2022/12/18 04:18:04;;;;;;;52.78;20.73;;;-6.30;99.90;;;;;;5026535;28;20117;-75
2022/12/18 04:20:30;;;;;;;59.55;21.48;;;-6.30;99.90;;;;;;5034420;28;20106;-75
2022/12/18 04:22:55;;;;;;;52.88;21.25;;;-6.30;99.90;;;;;;5007352;28;20065;-75
2022/12/18 04:25:21;;;;;;;49.15;21.80;;;-6.30;99.90;;;;;;5013897;28;20125;-75
2022/12/18 04:27:47;;;;;;;55.33;21.65;;;-6.40;99.90;;;;;;5025088;28;20155;-75
2022/12/18 04:30:13;;;;;;;52.95;21.08;;;-6.40;99.90;;;;;;5034457;28;20040;-75
2022/12/18 04:32:38;;;;;;;55.40;20.95;;;-6.40;99.90;;;;;;5009782;28;20540;-75
2022/12/18 04:35:06;;;;;;;56.72;22.80;;;-6.30;99.90;;;;;;5014754;28;20049;-75
2022/12/18 04:37:32;;;;;;;60.67;24.70;;;-6.30;99.90;;;;;;5031186;28;20053;-75
2022/12/18 04:39:58;;;;;;;54.95;22.02;;;-6.30;99.90;;;;;;5029402;28;20585;-75
2022/12/18 04:42:24;;;;;;;62.65;25.30;;;-6.30;99.90;;;;;;5013816;28;20080;-75
2022/12/18 04:44:50;;;;;;;60.95;24.02;;;-6.40;99.90;;;;;;5014648;28;20041;-75
2022/12/18 04:47:15;;;;;;;61.22;24.70;;;-6.40;99.90;;;;;;5014104;28;20491;-75
2022/12/18 04:49:41;;;;;;;68.90;22.67;;;-6.40;99.90;;;;;;5014170;28;20085;-75
2022/12/18 04:52:07;;;;;;;61.63;24.27;;;-6.40;99.90;;;;;;5015147;28;20044;-75
2022/12/18 04:54:33;;;;;;;62.25;22.63;;;-6.40;99.90;;;;;;5015373;28;20052;-75
2022/12/18 04:56:58;;;;;;;55.58;22.77;;;-6.40;99.90;;;;;;5021602;28;20041;-76
2022/12/18 04:59:24;;;;;;;71.97;25.40;;;-6.40;99.90;;;;;;5013879;28;20037;-75
2022/12/18 05:01:50;;;;;;;63.95;25.42;;;-6.50;99.90;;;;;;5008646;28;20034;-76
2022/12/18 05:04:16;;;;;;;62.45;24.05;;;-6.50;99.90;;;;;;5008855;28;20124;-76
2022/12/18 05:06:41;;;;;;;53.92;23.98;;;-6.40;99.90;;;;;;5019070;28;20120;-75
2022/12/18 05:09:07;;;;;;;61.78;22.55;;;-6.50;99.90;;;;;;5013807;28;20044;-75
2022/12/18 05:11:33;;;;;;;57.80;24.08;;;-6.60;99.90;;;;;;5012938;28;20045;-75
2022/12/18 05:13:59;;;;;;;58.58;24.27;;;-6.60;99.90;;;;;;5013154;28;20041;-75
2022/12/18 05:16:25;;;;;;;51.88;20.75;;;-6.60;99.90;;;;;;5014099;28;20400;-75
2022/12/18 05:18:50;;;;;;;55.50;24.05;;;-6.60;99.90;;;;;;5030057;28;20040;-75
2022/12/18 05:21:16;;;;;;;59.20;24.15;;;-6.60;99.90;;;;;;5015920;28;20052;-75
2022/12/18 05:23:42;;;;;;;50.10;22.90;;;-6.70;99.90;;;;;;5011464;28;20057;-75
2022/12/18 05:26:09;;;;;;;57.65;22.92;;;-6.70;99.90;;;;;;5013809;28;20110;-75
2022/12/18 05:28:36;;;;;;;60.67;23.25;;;-6.80;99.90;;;;;;5013114;28;20037;-75
2022/12/18 05:31:03;;;;;;;55.95;23.15;;;-6.80;99.90;;;;;;5017421;28;20029;-75
2022/12/18 05:33:31;;;;;;;60.78;23.80;;;-6.80;99.90;;;;;;5012650;28;20044;-75
2022/12/18 05:36:02;;;;;;;49.22;20.40;;;-6.80;99.90;;;;;;5012833;28;20057;-75
2022/12/18 05:38:28;;;;;;;56.83;20.58;;;-6.80;99.90;;;;;;5029623;28;20498;-75
2022/12/18 05:40:55;;;;;;;58.03;21.23;;;-6.90;99.90;;;;;;5013260;28;20046;-75
2022/12/18 05:43:21;;;;;;;48.35;19.85;;;-6.90;99.90;;;;;;5011598;28;20132;-75
2022/12/18 05:45:47;;;;;;;47.05;21.08;;;-6.90;99.90;;;;;;5020563;28;20119;-75
2022/12/18 05:48:14;;;;;;;51.33;22.10;;;-6.90;99.90;;;;;;5043858;28;20037;-75
2022/12/18 05:50:42;;;;;;;40.28;18.10;;;-6.90;99.90;;;;;;5022194;28;20132;-75
2022/12/18 05:53:08;;;;;;;50.20;20.38;;;-6.90;99.90;;;;;;5012572;28;20045;-75
2022/12/18 05:55:35;;;;;;;48.80;19.33;;;-7.00;99.90;;;;;;5013360;28;20047;-75
2022/12/18 05:58:02;;;;;;;46.20;19.27;;;-6.90;99.90;;;;;;5012643;28;20090;-75
2022/12/18 06:00:28;;;;;;;42.35;19.38;;;-7.00;99.90;;;;;;5024633;28;20040;-75
2022/12/18 06:02:54;;;;;;;41.28;18.35;;;-7.10;99.90;;;;;;5017713;28;20395;-76
2022/12/18 06:05:20;;;;;;;47.75;18.98;;;-7.10;99.90;;;;;;5013519;28;20437;-75
2022/12/18 06:07:48;;;;;;;47.85;19.90;;;-7.10;99.90;;;;;;5013101;28;20487;-76
2022/12/18 06:10:13;;;;;;;55.13;19.38;;;-7.00;99.90;;;;;;5011208;28;20034;-75
2022/12/18 06:12:39;;;;;;;43.70;18.83;;;-7.10;99.90;;;;;;5026817;28;20055;-75
2022/12/18 06:15:05;;;;;;;43.78;18.52;;;-7.00;99.90;;;;;;5020164;28;20033;-75
2022/12/18 06:17:32;;;;;;;45.90;19.25;;;-7.10;99.90;;;;;;5012548;28;20111;-75
2022/12/18 06:19:58;;;;;;;50.42;18.58;;;-7.00;99.90;;;;;;5024711;28;20115;-75
2022/12/18 06:22:24;;;;;;;40.47;19.90;;;-7.10;99.90;;;;;;5017457;28;20042;-75
2022/12/18 06:24:50;;;;;;;47.78;21.38;;;-7.20;99.90;;;;;;5011084;28;20053;-75
2022/12/18 06:27:16;;;;;;;46.90;21.20;;;-7.20;99.90;;;;;;5019388;28;20033;-75
2022/12/18 06:29:42;;;;;;;42.63;18.02;;;-7.20;99.90;;;;;;5015224;28;20094;-75
2022/12/18 06:32:08;;;;;;;47.03;18.30;;;-7.30;99.90;;;;;;5012527;28;20045;-75
2022/12/18 06:34:34;;;;;;;44.80;19.63;;;-7.30;99.90;;;;;;5012975;28;20045;-75
2022/12/18 06:37:00;;;;;;;35.72;16.27;;;-7.30;99.90;;;;;;5031867;28;20479;-75
2022/12/18 06:39:29;;;;;;;38.45;17.38;;;-7.30;99.90;;;;;;5025100;28;20029;-75
2022/12/18 06:41:55;;;;;;;37.38;17.05;;;-7.30;99.90;;;;;;5008023;28;20474;-75
2022/12/18 06:44:21;;;;;;;36.70;17.38;;;-7.30;99.90;;;;;;5010825;28;20124;-75
2022/12/18 06:47:12;;;;;;;36.95;18.08;;;-7.30;99.90;;;;;;5012152;28;20033;-79
2022/12/18 06:49:38;;;;;;;41.13;19.10;;;-7.30;99.90;;;;;;5012541;28;20076;-77
2022/12/18 06:52:04;;;;;;;38.35;18.65;;;-7.30;99.90;;;;;;5010593;28;20117;-76
2022/12/18 06:54:33;;;;;;;33.40;16.85;;;-7.30;99.90;;;;;;5013445;28;20512;-75
2022/12/18 06:57:02;;;;;;;33.15;15.48;;;-7.20;99.90;;;;;;5030279;28;20041;-74
2022/12/18 06:59:27;;;;;;;35.28;15.80;;;-7.20;99.90;;;;;;5009197;28;20434;-75
2022/12/18 07:01:55;;;;;;;35.95;18.77;;;-7.20;99.90;;;;;;5024742;28;20034;-75
2022/12/18 07:04:28;;;;;;;34.92;14.70;;;-7.30;99.90;;;;;;5029107;28;20098;-76
2022/12/18 07:06:57;;;;;;;36.95;16.73;;;-7.20;99.90;;;;;;5027161;28;20088;-75
2022/12/18 07:09:26;;;;;;;38.70;16.77;;;-7.20;99.90;;;;;;5004866;28;20057;-76
2022/12/18 07:11:51;;;;;;;42.25;18.98;;;-7.20;99.90;;;;;;4997070;28;20132;-76
2022/12/18 07:14:17;;;;;;;37.22;18.15;;;-7.20;99.90;;;;;;5013336;28;20119;-76
2022/12/18 07:17:01;;;;;;;42.13;19.52;;;-7.20;99.90;;;;;;5016550;28;20041;-76
2022/12/18 07:19:27;;;;;;;41.33;18.00;;;-7.20;99.90;;;;;;5017304;28;20040;-77
2022/12/18 07:21:53;;;;;;;37.30;17.98;;;-7.00;99.90;;;;;;5002286;28;20052;-76
2022/12/18 07:24:37;;;;;;;43.25;16.98;;;-7.10;99.90;;;;;;5007913;28;20041;-76
2022/12/18 07:27:31;;;;;;;36.63;18.42;;;-7.10;99.90;;;;;;5016261;28;20052;-76
2022/12/18 07:30:10;;;;;;;39.75;17.90;;;-7.00;99.90;;;;;;5015908;28;20062;-75
2022/12/18 07:32:35;;;;;;;32.38;16.42;;;-7.00;99.90;;;;;;4995866;28;20053;-75
2022/12/18 07:35:01;;;;;;;31.67;16.02;;;-7.00;99.90;;;;;;5012800;28;20033;-76
2022/12/18 07:37:29;;;;;;;35.47;16.67;;;-6.90;99.90;;;;;;5011229;28;20412;-76
2022/12/18 07:39:55;;;;;;;37.58;17.50;;;-6.90;99.90;;;;;;5012106;28;20125;-75
2022/12/18 07:42:36;;;;;;;38.10;18.13;;;-6.80;99.90;;;;;;5033874;28;20140;-76
2022/12/18 07:45:03;;;;;;;34.88;16.02;;;-6.90;99.90;;;;;;5023376;28;20037;-76
2022/12/18 07:47:29;;;;;;;33.53;17.52;;;-6.80;99.90;;;;;;5043875;28;20462;-76
2022/12/18 07:49:55;;;;;;;40.20;18.17;;;-6.80;99.90;;;;;;5025960;28;20046;-76
2022/12/18 07:52:21;;;;;;;42.75;19.70;;;-6.70;99.90;;;;;;4973863;28;20054;-76
2022/12/18 07:54:49;;;;;;;36.28;18.63;;;-6.70;99.90;;;;;;4846665;29;20051;-76
2022/12/18 07:57:18;;;;;;;34.75;16.80;;;-6.70;99.90;;;;;;4625995;30;20056;-76
2022/12/18 08:02:20;;;;;;;40.40;19.40;;;-6.60;99.90;;;;;;5195678;27;20128;-74
2022/12/18 08:04:48;;;;;;;31.75;17.63;;;-6.60;99.90;;;;;;5154104;27;20046;-74
2022/12/18 08:07:17;;;;;;;38.33;17.08;;;-6.50;99.90;;;;;;5153201;27;20049;-74
2022/12/18 08:09:42;;;;;;;39.42;17.38;;;-6.50;99.90;;;;;;5145285;27;20047;-76
2022/12/18 08:12:08;;;;;;;34.72;18.30;;;-6.50;99.90;;;;;;5098515;28;20052;-77
2022/12/18 08:14:34;;;;;;;34.78;17.65;;;-6.40;99.90;;;;;;4935167;28;20078;-77
2022/12/18 08:16:59;;;;;;;35.78;17.65;;;-6.40;99.90;;;;;;4652377;29;20063;-77
2022/12/18 08:19:47;;;;;;;40.30;20.83;;;-6.40;99.90;;;;;;5212064;27;20128;-76
2022/12/18 08:22:16;;;;;;;33.83;18.27;;;-6.30;99.90;;;;;;5147574;27;20047;-77
2022/12/18 08:24:45;;;;;;;31.08;15.82;;;-6.30;99.90;;;;;;5130959;27;20043;-77
2022/12/18 08:27:13;;;;;;;29.35;16.85;;;-6.30;99.90;;;;;;5101962;28;20032;-77
2022/12/18 08:29:44;;;;;;;34.30;16.08;;;-6.20;99.90;;;;;;5053153;28;20041;-77
2022/12/18 08:32:33;;;;;;;35.75;17.48;;;-6.20;99.90;;;;;;4904603;28;20047;-81
2022/12/18 08:35:28;;;;;;;33.83;19.20;;;-6.20;99.90;;;;;;4739462;29;20512;-81
2022/12/18 08:39:04;;;;;;;;;;;;;;;;;;;;;
2022/12/18 08:45:37;;;;;;;27.92;18.00;;;-5.90;99.90;;;;;;4270831;32;20128;-79
2022/12/18 08:48:14;;;;;;;28.15;18.05;;;-5.90;99.90;;;;;;3983110;34;20158;-79
2022/12/18 08:51:41;;;;;;;27.58;16.27;;;-5.80;99.90;;;;;;5190330;27;20137;-77
2022/12/18 08:54:19;;;;;;;42.25;16.45;;;-5.70;99.90;;;;;;5133775;27;20123;-78
2022/12/18 08:56:49;;;;;;;28.75;16.17;;;-5.60;99.90;;;;;;5130223;27;20154;-78
2022/12/18 08:59:21;;;;;;;28.13;17.15;;;-5.50;99.90;;;;;;5080304;28;20049;-77
2022/12/18 09:04:21;;;;;;;25.73;15.48;;;-5.30;99.90;;;;;;5015479;28;20057;-77
2022/12/18 09:06:46;;;;;;;28.08;14.55;;;-5.20;99.90;;;;;;4968259;28;20532;-77
2022/12/18 09:09:12;;;;;;;24.13;13.70;;;-5.10;99.90;;;;;;4937968;28;20100;-77
2022/12/18 09:13:49;;;;;;;26.17;15.77;;;-5.00;99.90;;;;;;5191753;27;20152;-77
2022/12/18 09:16:15;;;;;;;35.90;18.50;;;-4.90;99.90;;;;;;5141969;27;20035;-76
2022/12/18 09:18:41;;;;;;;38.40;22.48;;;-4.70;99.90;;;;;;5109606;27;20040;-78
2022/12/18 09:21:12;;;;;;;32.17;16.92;;;-4.70;99.90;;;;;;5112624;28;20067;-77
2022/12/18 09:23:38;;;;;;;25.40;16.07;;;-4.60;99.90;;;;;;5027715;28;20048;-77
2022/12/18 09:26:04;;;;;;;29.95;17.23;;;-4.50;99.90;;;;;;4932416;28;20305;-77
2022/12/18 09:28:29;;;;;;;23.23;15.18;;;-4.40;99.90;;;;;;4852530;29;20551;-77
2022/12/18 09:30:55;;;;;;;27.48;15.30;;;-4.30;99.90;;;;;;4777930;29;20046;-77
2022/12/18 09:33:20;;;;;;;27.73;15.13;;;-4.20;99.90;;;;;;4748950;30;20508;-75
2022/12/18 09:35:46;;;;;;;25.67;14.60;;;-4.10;99.90;;;;;;4628773;30;20050;-76
2022/12/18 09:38:24;;;;;;;23.70;14.77;;;-4.10;99.90;;;;;;5201492;27;20128;-76
2022/12/18 09:40:55;;;;;;;21.27;13.32;;;-4.00;99.90;;;;;;5138410;27;20412;-76
2022/12/18 09:43:42;;;;;;;25.48;14.35;;;-3.90;99.90;;;;;;5107950;28;20039;-76
2022/12/18 09:46:15;;;;;;;26.45;14.85;;;-3.80;99.90;;;;;;5049790;28;20118;-76
2022/12/18 09:48:46;;;;;;;28.50;16.33;;;-3.70;99.90;;;;;;5001805;28;20047;-76
2022/12/18 09:51:49;;;;;;;24.40;13.75;;;-3.60;99.90;;;;;;5002488;23;20202;-78
2022/12/18 09:54:51;;;;;;;25.92;13.68;;;-3.60;99.90;;;;;;4698806;29;20411;-78
2022/12/18 09:57:56;;;;;;;22.42;12.68;;;-3.50;99.90;;;;;;4302659;32;20511;-77
2022/12/18 10:02:41;;;;;;;19.52;11.35;;;-3.50;99.90;;;;;;5102942;27;20139;-78
2022/12/18 10:05:19;;;;;;;21.45;11.70;;;-3.40;99.90;;;;;;5057503;28;20486;-78
2022/12/18 10:08:04;;;;;;;19.45;11.75;;;-3.30;99.90;;;;;;5034581;28;20566;-78
2022/12/18 10:10:49;;;;;;;23.05;12.77;;;-3.30;99.90;;;;;;4944633;28;20505;-78
2022/12/18 10:13:25;;;;;;;19.85;12.35;;;-3.20;99.90;;;;;;4883944;28;20057;-78
2022/12/18 10:16:33;;;;;;;20.17;12.40;;;-3.10;99.90;;;;;;4601703;30;20082;-78
2022/12/18 10:19:18;;;;;;;20.38;13.02;;;-3.10;99.90;;;;;;4262457;32;20514;-76
2022/12/18 10:23:00;;;;;;;18.63;10.63;;;-3.00;99.90;;;;;;5180150;27;20156;-76
2022/12/18 10:26:15;;;;;;;16.65;10.30;;;-2.90;99.90;;;;;;5099102;27;20047;-76
2022/12/18 10:28:51;;;;;;;16.92;10.10;;;-2.80;99.90;;;;;;5065376;28;20087;-76
2022/12/18 10:31:23;;;;;;;20.80;11.05;;;-2.80;99.90;;;;;;5038304;28;20037;-77
2022/12/18 10:33:49;;;;;;;17.58;10.68;;;-2.70;99.90;;;;;;4921360;23;20080;-83
2022/12/18 10:36:15;;;;;;;21.67;12.02;;;-2.60;99.90;;;;;;4818254;29;20050;-83
2022/12/18 10:38:41;;;;;;;20.52;16.40;;;-2.60;99.90;;;;;;4795942;29;20054;-84
2022/12/18 10:44:21;;;;;;;21.13;11.45;;;-2.50;99.90;;;;;;5199299;27;20130;-82
2022/12/18 10:46:55;;;;;;;16.45;11.23;;;-2.40;99.90;;;;;;5140738;27;20538;-82
2022/12/18 10:49:28;;;;;;;21.13;17.02;;;-2.40;99.90;;;;;;5143555;27;20059;-83
2022/12/18 10:52:21;;;;;;;15.00;8.27;;;-2.30;99.90;;;;;;5102570;28;20047;-82
2022/12/18 10:55:01;;;;;;;15.48;9.73;;;-2.20;99.90;;;;;;5001291;28;20057;-82
2022/12/18 10:57:41;;;;;;;17.80;15.75;;;-2.20;99.90;;;;;;4967486;28;20126;-82
2022/12/18 11:00:28;;;;;;;24.95;11.57;;;-2.10;99.90;;;;;;4901210;29;20145;-82
2022/12/18 11:02:55;;;;;;;17.02;9.23;;;-2.10;99.90;;;;;;4859440;29;20057;-83
2022/12/18 11:08:27;;;;;;;18.77;11.52;;;-2.10;99.90;;;;;;5228300;27;19918;-83
2022/12/18 11:10:53;;;;;;;23.05;18.48;;;-1.90;99.90;;;;;;5170304;27;20043;-82
2022/12/18 11:13:21;;;;;;;16.10;9.95;;;-1.90;99.90;;;;;;5183506;27;20043;-82
2022/12/18 11:15:47;;;;;;;14.88;9.40;;;-1.80;99.90;;;;;;5136031;27;20485;-82
2022/12/18 11:18:27;;;;;;;19.35;11.23;;;-1.80;99.90;;;;;;5088017;28;20049;-83
2022/12/18 11:21:00;;;;;;;21.35;18.20;;;-1.80;99.90;;;;;;5033850;23;20046;-76
2022/12/18 11:23:27;;;;;;;23.17;18.80;;;-1.70;99.90;;;;;;5039919;28;20052;-77
2022/12/18 11:25:55;;;;;;;14.73;8.65;;;-1.70;99.90;;;;;;5002278;28;20065;-76
2022/12/18 11:28:40;;;;;;;17.02;14.68;;;-1.60;99.90;;;;;;4897391;29;20050;-76
2022/12/18 11:33:43;;;;;;;13.40;8.68;;;-1.60;99.90;;;;;;5195063;27;20339;-77
2022/12/18 11:36:10;;;;;;;15.77;12.73;;;-1.50;99.90;;;;;;5128351;27;20112;-76
2022/12/18 11:38:39;;;;;;;17.50;14.63;;;-1.50;99.90;;;;;;5149002;27;20093;-76
2022/12/18 11:44:34;;;;;;;13.95;8.10;;;-1.40;99.90;;;;;;5058377;28;20099;-76
2022/12/18 11:47:09;;;;;;;16.30;14.43;;;-1.40;99.90;;;;;;4964335;28;20043;-76
2022/12/18 11:49:35;;;;;;;19.70;11.10;;;-1.30;99.90;;;;;;4955602;28;20396;-76
2022/12/18 11:52:21;;;;;;;17.48;9.57;;;-1.30;99.90;;;;;;4967135;28;20046;-77
2022/12/18 11:55:15;;;;;;;14.82;12.93;;;-1.30;99.90;;;;;;5196466;27;20433;-77
2022/12/18 11:58:05;;;;;;;14.15;12.40;;;-1.20;99.90;;;;;;5142856;27;20385;-76
2022/12/18 12:00:31;;;;;;;14.90;11.15;;;-1.20;99.90;;;;;;5158405;27;20051;-77
2022/12/18 12:03:11;;;;;;;13.75;12.15;;;-1.20;99.90;;;;;;5122657;27;20036;-76
2022/12/18 12:05:51;;;;;;;16.33;13.90;;;-1.20;99.90;;;;;;5071778;27;20533;-81
2022/12/18 12:08:30;;;;;;;14.25;11.77;;;-1.20;99.90;;;;;;4970737;28;20051;-79
2022/12/18 12:11:51;;;;;;;14.80;11.77;;;-1.20;99.90;;;;;;4908411;28;20541;-79
2022/12/18 12:14:31;;;;;;;13.73;11.57;;;-1.10;99.90;;;;;;4809971;29;20506;-79
2022/12/18 12:17:46;;;;;;;11.90;7.53;;;-1.10;99.90;;;;;;4762809;29;20082;-80
2022/12/18 12:20:29;;;;;;;13.32;11.80;;;-1.10;99.90;;;;;;5210619;27;20123;-78
2022/12/18 12:23:09;;;;;;;12.07;7.20;;;-1.10;99.90;;;;;;5134256;27;20047;-78
2022/12/18 12:25:55;;;;;;;15.02;7.45;;;-1.10;99.90;;;;;;5091124;28;20478;-81
2022/12/18 12:28:32;;;;;;;13.75;12.32;;;-1.10;99.90;;;;;;5061293;28;20045;-79
2022/12/18 12:31:06;;;;;;;12.90;8.38;;;-1.00;99.90;;;;;;4912461;28;20501;-79
2022/12/18 12:34:00;;;;;;;13.20;11.07;;;-1.00;99.90;;;;;;4898041;29;20049;-78
2022/12/18 12:36:51;;;;;;;12.35;10.35;;;-0.90;99.90;;;;;;4852241;29;21244;-79
2022/12/18 12:39:22;;;;;;;11.20;10.00;;;-0.90;99.90;;;;;;4732265;30;20486;-79
2022/12/18 12:44:53;;;;;;;10.93;9.25;;;-0.90;99.90;;;;;;5193398;27;20605;-77
2022/12/18 12:47:35;;;;;;;11.07;9.02;;;-0.80;99.90;;;;;;5129820;27;20054;-77
2022/12/18 12:50:11;;;;;;;10.50;8.30;;;-0.80;99.90;;;;;;5115545;27;20036;-77
2022/12/18 12:52:50;;;;;;;99.10;15.68;;;-0.80;99.90;;;;;;5038078;28;20037;-77
2022/12/18 12:55:20;;;;;;;9.25;8.25;;;-0.70;99.90;;;;;;5042986;22;20042;-77
2022/12/18 12:57:58;;;;;;;11.18;8.13;;;-0.70;99.90;;;;;;4999235;28;20103;-77
2022/12/18 13:00:27;;;;;;;11.93;8.63;;;-0.70;99.90;;;;;;4636738;29;20206;-77
2022/12/18 13:05:27;;;;;;;10.57;8.20;;;-0.70;99.90;;;;;;5161225;27;20492;-77
2022/12/18 13:08:12;;;;;;;9.95;7.80;;;-0.60;99.90;;;;;;5061845;28;20478;-77
2022/12/18 13:10:44;;;;;;;10.30;8.77;;;-0.60;99.90;;;;;;5087348;27;20055;-76
2022/12/18 13:13:17;;;;;;;9.00;7.65;;;-0.60;99.90;;;;;;5070709;28;20510;-76
2022/12/18 13:16:07;;;;;;;28.92;21.85;;;-0.60;99.90;;;;;;4909305;28;20049;-76
2022/12/18 13:18:34;;;;;;;28.00;19.08;;;-0.60;99.90;;;;;;4709075;29;20077;-76
2022/12/18 13:21:18;;;;;;;15.43;13.77;;;-0.60;99.90;;;;;;4380032;31;20066;-76
2022/12/18 13:25:29;;;;;;;9.57;6.03;;;-0.50;99.90;;;;;;5199642;27;20710;-76
2022/12/18 13:28:03;;;;;;;11.02;9.02;;;-0.50;99.90;;;;;;5114421;27;20058;-76
2022/12/18 13:30:32;;;;;;;14.98;11.15;;;-0.60;99.90;;;;;;5079817;28;20082;-77
2022/12/18 13:33:21;;;;;;;15.65;11.45;;;-0.60;99.90;;;;;;5025197;28;20342;-76